createdAt,value
2022-10-12T00:00:49.867Z,95772.91
2022-10-12T00:03:17.931Z,95763.59
2022-10-12T00:05:45.744Z,95769.50
2022-10-12T00:08:14.842Z,95765.78
2022-10-12T00:10:43.547Z,95766.31
2022-10-12T00:13:12.112Z,95765.75
2022-10-12T00:15:43.478Z,95764.69
2022-10-12T00:18:11.406Z,95760.13
2022-10-12T00:20:39.808Z,95764.50
2022-10-12T00:23:07.812Z,95760.34
2022-10-12T00:25:40.696Z,95763.19
2022-10-12T00:28:09.303Z,95760.41
2022-10-12T00:30:42.138Z,95763.19
2022-10-12T00:33:09.941Z,95760.75
2022-10-12T00:35:37.748Z,95764.28
2022-10-12T00:38:05.585Z,95769.09
2022-10-12T00:40:33.417Z,95764.16
2022-10-12T00:43:02.530Z,95760.25
2022-10-12T00:45:30.977Z,95756.28
2022-10-12T00:48:01.243Z,95767.91
2022-10-12T00:50:32.286Z,95758.03
2022-10-12T00:53:04.666Z,95767.88
2022-10-12T00:55:38.319Z,95765.13
2022-10-12T00:58:09.215Z,95755.66
2022-10-12T01:00:39.192Z,95763.41
2022-10-12T01:03:08.920Z,95761.03
2022-10-12T01:05:37.305Z,95768.00
2022-10-12T01:08:05.081Z,95764.97
2022-10-12T01:10:33.168Z,95767.56
2022-10-12T01:13:01.484Z,95763.19
2022-10-12T01:15:35.382Z,95765.97
2022-10-12T01:18:09.698Z,95767.34
2022-10-12T01:20:53.337Z,95765.16
2022-10-12T01:23:46.090Z,95760.00
2022-10-12T01:26:54.576Z,95761.53
2022-10-12T01:29:51.466Z,95758.13
2022-10-12T01:32:23.424Z,95763.78
2022-10-12T01:35:01.405Z,95757.47
2022-10-12T01:37:39.010Z,95749.34
2022-10-12T01:40:13.033Z,95751.50
2022-10-12T01:42:43.662Z,95757.03
2022-10-12T01:45:13.781Z,95760.22
2022-10-12T01:47:48.304Z,95754.91
2022-10-12T01:50:18.816Z,95764.03
2022-10-12T01:52:57.925Z,95759.47
2022-10-12T01:55:38.187Z,95754.66
2022-10-12T01:58:26.453Z,95754.44
2022-10-12T02:01:01.496Z,95766.06
2022-10-12T02:03:37.736Z,95766.03
2022-10-12T02:06:09.753Z,95766.22
2022-10-12T02:08:43.031Z,95762.34
2022-10-12T02:11:13.996Z,95756.25
2022-10-12T02:13:45.744Z,95755.84
2022-10-12T02:16:19.004Z,95747.63
2022-10-12T02:18:54.474Z,95752.56
2022-10-12T02:21:28.612Z,95748.19
2022-10-12T02:23:59.502Z,95757.50
2022-10-12T02:26:29.213Z,95754.53
2022-10-12T02:28:59.676Z,95760.69
2022-10-12T02:31:36.336Z,95753.91
2022-10-12T02:34:11.735Z,95753.72
2022-10-12T02:36:47.564Z,95759.56
2022-10-12T02:39:21.315Z,95758.75
2022-10-12T02:41:52.354Z,95753.31
2022-10-12T02:44:23.681Z,95749.59
2022-10-12T02:46:54.570Z,95732.13
2022-10-12T02:49:25.979Z,95740.66
2022-10-12T02:51:55.119Z,95736.69
2022-10-12T02:54:22.992Z,95736.88
2022-10-12T02:56:51.017Z,95739.63
2022-10-12T02:59:20.032Z,95734.91
2022-10-12T03:01:49.579Z,95716.16
2022-10-12T03:04:17.488Z,95729.34
2022-10-12T03:06:46.692Z,95724.47
2022-10-12T03:09:18.401Z,95720.59
2022-10-12T03:11:46.142Z,95715.41
2022-10-12T03:14:16.867Z,95712.66
2022-10-12T03:16:46.514Z,95730.97
2022-10-12T03:19:14.613Z,95727.56
2022-10-12T03:21:42.732Z,95725.28
2022-10-12T03:24:12.093Z,95718.59
2022-10-12T03:26:39.885Z,95715.25
2022-10-12T03:29:08.484Z,95718.16
2022-10-12T03:31:36.277Z,95718.91
2022-10-12T03:34:05.473Z,95724.41
2022-10-12T03:36:33.320Z,95720.22
2022-10-12T03:39:01.291Z,95730.50
2022-10-12T03:41:30.440Z,95735.50
2022-10-12T03:43:58.560Z,95728.66
2022-10-12T03:46:26.372Z,95726.66
2022-10-12T03:48:56.971Z,95716.41
2022-10-12T03:51:24.833Z,95730.91
2022-10-12T03:53:52.654Z,95719.22
2022-10-12T03:56:20.437Z,95717.03
2022-10-12T03:58:52.149Z,95721.97
2022-10-12T04:01:20.014Z,95735.03
2022-10-12T04:03:48.064Z,95728.88
2022-10-12T04:06:15.872Z,95731.63
2022-10-12T04:08:48.345Z,95734.28
2022-10-12T04:11:20.521Z,95727.31
2022-10-12T04:13:49.891Z,95727.28
2022-10-12T04:16:17.770Z,95726.09
2022-10-12T04:18:45.617Z,95728.31
2022-10-12T04:21:15.678Z,95731.28
2022-10-12T04:23:43.815Z,95727.56
2022-10-12T04:26:11.592Z,95713.13
2022-10-12T04:28:41.011Z,95724.38
2022-10-12T04:31:10.193Z,95724.94
2022-10-12T04:33:37.909Z,95734.81
2022-10-12T04:36:05.964Z,95738.19
2022-10-12T04:38:33.805Z,95744.53
2022-10-12T04:41:01.562Z,95737.78
2022-10-12T04:43:29.424Z,95736.66
2022-10-12T04:45:58.812Z,95728.75
2022-10-12T04:48:28.982Z,95729.94
2022-10-12T04:50:56.832Z,95733.53
2022-10-12T04:53:24.697Z,95735.69
2022-10-12T04:55:56.728Z,95730.34
2022-10-12T04:58:24.575Z,95725.19
2022-10-12T05:00:52.413Z,95724.97
2022-10-12T05:03:20.224Z,95729.16
2022-10-12T05:05:49.551Z,95732.72
2022-10-12T05:08:17.606Z,95732.75
2022-10-12T05:10:46.145Z,95730.91
2022-10-12T05:13:14.107Z,95728.97
2022-10-12T05:15:42.621Z,95728.53
2022-10-12T05:18:10.636Z,95721.25
2022-10-12T05:20:38.588Z,95735.31
2022-10-12T05:23:07.969Z,95737.69
2022-10-12T05:25:36.576Z,95735.47
2022-10-12T05:28:04.553Z,95740.84
2022-10-12T05:30:32.372Z,95741.25
2022-10-12T05:33:03.075Z,95730.56
2022-10-12T05:35:31.001Z,95730.72
2022-10-12T05:37:58.756Z,95736.03
2022-10-12T05:40:28.036Z,95737.97
2022-10-12T05:42:55.788Z,95727.28
2022-10-12T05:45:23.550Z,95715.78
2022-10-12T05:47:51.477Z,95728.31
2022-10-12T05:50:19.409Z,95730.50
2022-10-12T05:52:47.193Z,95725.72
2022-10-12T05:55:15.123Z,95739.56
2022-10-12T05:57:47.334Z,95748.88
2022-10-12T06:00:17.815Z,95748.63
2022-10-12T06:02:45.540Z,95746.41
2022-10-12T06:05:13.481Z,95748.81
2022-10-12T06:07:41.365Z,95749.22
2022-10-12T06:10:10.165Z,95748.81
2022-10-12T06:12:38.190Z,95755.31
2022-10-12T06:15:09.450Z,95752.91
2022-10-12T06:17:37.242Z,95750.16
2022-10-12T06:20:05.487Z,95740.41
2022-10-12T06:22:33.255Z,95746.41
2022-10-12T06:25:01.036Z,95764.81
2022-10-12T06:27:28.840Z,95765.25
2022-10-12T06:29:56.643Z,95766.81
2022-10-12T06:32:25.812Z,95779.81
2022-10-12T06:37:48.635Z,95780.38
2022-10-12T06:40:13.248Z,95788.66
2022-10-12T06:42:41.241Z,95790.56
2022-10-12T06:45:09.997Z,95790.41
2022-10-12T06:47:39.350Z,95782.72
2022-10-12T06:50:09.105Z,95791.47
2022-10-12T06:52:37.525Z,95793.81
2022-10-12T06:55:07.102Z,95799.81
2022-10-12T06:57:35.164Z,95789.88
2022-10-12T07:00:06.092Z,95792.06
2022-10-12T07:02:40.401Z,95794.38
2022-10-12T07:05:13.096Z,95787.81
2022-10-12T07:07:41.249Z,95797.34
2022-10-12T07:10:10.160Z,95792.97
2022-10-12T07:12:39.546Z,95782.59
2022-10-12T07:15:08.801Z,95782.03
2022-10-12T07:17:37.814Z,95783.91
2022-10-12T07:20:07.579Z,95777.44
2022-10-12T07:22:37.011Z,95790.09
2022-10-12T07:25:05.649Z,95800.63
2022-10-12T07:27:33.610Z,95794.47
2022-10-12T07:30:01.492Z,95797.19
2022-10-12T07:32:29.455Z,95791.78
2022-10-12T07:34:57.541Z,95804.38
2022-10-12T07:37:25.675Z,95807.56
2022-10-12T07:39:57.434Z,95814.72
2022-10-12T07:42:26.291Z,95826.13
2022-10-12T07:44:54.331Z,95807.16
2022-10-12T07:47:22.406Z,95821.88
2022-10-12T07:49:50.779Z,95821.09
2022-10-12T07:52:18.777Z,95816.84
2022-10-12T07:54:46.491Z,95829.34
2022-10-12T07:57:15.555Z,95827.31
2022-10-12T07:59:43.381Z,95831.91
2022-10-12T08:02:12.389Z,95835.63
2022-10-12T08:04:40.289Z,95831.97
2022-10-12T08:07:08.301Z,95831.97
2022-10-12T08:09:36.281Z,95833.84
2022-10-12T08:12:04.763Z,95830.31
2022-10-12T08:14:34.203Z,95843.59
2022-10-12T08:17:02.081Z,95840.72
2022-10-12T08:19:35.080Z,95831.91
2022-10-12T08:22:03.224Z,95831.88
2022-10-12T08:24:30.980Z,95833.03
2022-10-12T08:27:01.338Z,95840.06
2022-10-12T08:29:29.540Z,95834.28
2022-10-12T08:31:58.648Z,95835.00
2022-10-12T08:34:26.397Z,95842.31
2022-10-12T08:36:54.162Z,95840.41
2022-10-12T08:39:22.139Z,95834.66
2022-10-12T08:42:00.086Z,95840.53
2022-10-12T08:44:48.997Z,95838.47
2022-10-12T08:47:22.313Z,95854.88
2022-10-12T08:49:51.683Z,95850.78
2022-10-12T08:52:29.435Z,95844.31
2022-10-12T08:55:03.296Z,95838.88
2022-10-12T08:57:31.094Z,95844.69
2022-10-12T08:59:59.635Z,95836.78
2022-10-12T09:02:51.627Z,95831.66
2022-10-12T09:05:28.565Z,95832.06
2022-10-12T09:08:01.165Z,95839.56
2022-10-12T09:10:44.205Z,95835.41
2022-10-12T09:13:23.375Z,95841.59
2022-10-12T09:15:53.938Z,95835.84
2022-10-12T09:18:31.005Z,95837.19
2022-10-12T09:20:59.931Z,95842.72
2022-10-12T09:23:31.449Z,95848.53
2022-10-12T09:26:08.161Z,95838.03
2022-10-12T09:28:40.450Z,95840.59
2022-10-12T09:31:19.860Z,95836.44
2022-10-12T09:33:52.857Z,95832.47
2022-10-12T09:36:23.275Z,95846.16
2022-10-12T09:38:52.216Z,95839.00
2022-10-12T09:41:23.761Z,95839.38
2022-10-12T09:43:55.575Z,95840.94
2022-10-12T09:46:31.512Z,95849.47
2022-10-12T09:49:01.529Z,95846.72
2022-10-12T09:51:31.103Z,95836.56
2022-10-12T09:54:03.331Z,95836.75
2022-10-12T09:56:39.726Z,95839.53
2022-10-12T09:59:18.674Z,95851.56
2022-10-12T10:01:59.100Z,95845.31
2022-10-12T10:04:30.660Z,95854.25
2022-10-12T10:07:14.896Z,95857.59
2022-10-12T10:09:42.856Z,95862.13
2022-10-12T10:12:22.363Z,95859.69
2022-10-12T10:14:51.692Z,95858.75
2022-10-12T10:17:26.223Z,95854.03
2022-10-12T10:19:57.848Z,95850.16
2022-10-12T10:22:26.483Z,95853.13
2022-10-12T10:25:00.169Z,95845.31
2022-10-12T10:27:32.181Z,95859.50
2022-10-12T10:30:29.219Z,95865.31
2022-10-12T10:33:18.807Z,95858.91
2022-10-12T10:35:58.100Z,95860.50
2022-10-12T10:38:26.425Z,95856.44
2022-10-12T10:40:58.000Z,95856.66
2022-10-12T10:43:29.493Z,95858.91
2022-10-12T10:45:59.608Z,95860.88
2022-10-12T10:48:30.762Z,95861.72
2022-10-12T10:51:02.300Z,95859.25
2022-10-12T10:53:43.631Z,95853.13
2022-10-12T10:56:15.388Z,95855.13
2022-10-12T10:58:47.036Z,95851.22
2022-10-12T11:01:22.859Z,95846.06
2022-10-12T11:03:57.520Z,95848.06
2022-10-12T11:06:37.004Z,95847.63
2022-10-12T11:09:12.231Z,95847.41
2022-10-12T11:11:41.678Z,95849.53
2022-10-12T11:14:16.319Z,95854.63
2022-10-12T11:16:47.803Z,95850.34
2022-10-12T11:19:25.092Z,95848.47
2022-10-12T11:21:57.587Z,95829.53
2022-10-12T11:24:30.399Z,95837.25
2022-10-12T11:27:03.529Z,95829.06
2022-10-12T11:29:31.612Z,95830.31
2022-10-12T11:32:04.322Z,95826.81
2022-10-12T11:34:38.629Z,95827.00
2022-10-12T11:37:19.743Z,95821.13
2022-10-12T11:39:51.206Z,95820.28
2022-10-12T11:42:29.204Z,95817.69
2022-10-12T11:45:00.322Z,95822.41
2022-10-12T11:47:35.597Z,95818.47
2022-10-12T11:50:07.627Z,95824.44
2022-10-12T11:52:42.068Z,95810.63
2022-10-12T11:55:28.071Z,95824.75
2022-10-12T11:57:59.786Z,95810.41
2022-10-12T12:00:37.106Z,95804.50
2022-10-12T12:03:18.662Z,95812.47
2022-10-12T12:05:46.581Z,95804.94
2022-10-12T12:08:24.195Z,95812.00
2022-10-12T12:10:54.470Z,95810.84
2022-10-12T12:13:27.174Z,95807.81
2022-10-12T12:16:34.040Z,95801.09
2022-10-12T12:19:15.544Z,95806.13
2022-10-12T12:22:12.959Z,95799.56
2022-10-12T12:24:52.852Z,95799.63
2022-10-12T12:27:23.709Z,95801.16
2022-10-12T12:29:53.385Z,95805.94
2022-10-12T12:32:21.921Z,95809.06
2022-10-12T12:35:00.031Z,95805.75
2022-10-12T12:37:35.181Z,95802.25
2022-10-12T12:40:05.102Z,95800.56
2022-10-12T12:42:34.251Z,95808.59
2022-10-12T12:45:42.836Z,95798.59
2022-10-12T12:48:11.730Z,95811.72
2022-10-12T12:50:41.729Z,95806.31
2022-10-12T12:53:18.105Z,95800.56
2022-10-12T12:56:03.593Z,95801.34
2022-10-12T12:59:02.463Z,95799.63
2022-10-12T13:01:50.064Z,95795.81
2022-10-12T13:04:35.647Z,95787.31
2022-10-12T13:07:37.230Z,95801.97
2022-10-12T13:10:20.022Z,95789.81
2022-10-12T13:13:10.363Z,95803.47
2022-10-12T13:15:54.350Z,95798.59
2022-10-12T13:18:56.923Z,95792.25
2022-10-12T13:21:27.230Z,95785.25
2022-10-12T13:24:04.332Z,95792.69
2022-10-12T13:26:33.492Z,95796.53
2022-10-12T13:29:07.297Z,95798.00
2022-10-12T13:31:39.219Z,95791.91
2022-10-12T13:34:13.890Z,95789.25
2022-10-12T13:36:54.028Z,95792.84
2022-10-12T13:39:23.234Z,95787.03
2022-10-12T13:41:54.163Z,95788.34
2022-10-12T13:44:26.685Z,95788.84
2022-10-12T13:46:57.784Z,95788.09
2022-10-12T13:49:28.204Z,95786.25
2022-10-12T13:51:57.501Z,95784.69
2022-10-12T13:54:27.295Z,95780.66
2022-10-12T13:57:00.228Z,95783.78
2022-10-12T13:59:33.590Z,95777.19
2022-10-12T14:02:02.972Z,95788.16
2022-10-12T14:04:32.139Z,95765.59
2022-10-12T14:07:02.962Z,95778.28
2022-10-12T14:09:40.420Z,95774.84
2022-10-12T14:12:09.670Z,95774.91
2022-10-12T14:14:40.943Z,95776.63
2022-10-12T14:17:08.924Z,95773.94
2022-10-12T14:19:45.036Z,95763.59
2022-10-12T14:22:13.947Z,95766.44
2022-10-12T14:24:41.865Z,95768.78
2022-10-12T14:27:09.938Z,95761.94
2022-10-12T14:29:45.415Z,95758.72
2022-10-12T14:32:39.345Z,95765.69
2022-10-12T14:35:23.939Z,95768.19
2022-10-12T14:37:53.704Z,95766.81
2022-10-12T14:40:38.596Z,95766.00
2022-10-12T14:43:09.474Z,95764.31
2022-10-12T14:45:42.177Z,95763.84
2022-10-12T14:48:15.139Z,95767.97
2022-10-12T14:50:44.791Z,95761.19
2022-10-12T14:53:14.993Z,95762.09
2022-10-12T14:55:43.622Z,95763.72
2022-10-12T14:58:15.851Z,95759.91
2022-10-12T15:00:45.510Z,95764.66
2022-10-12T15:03:13.631Z,95760.75
2022-10-12T15:05:41.446Z,95765.66
2022-10-12T15:08:12.610Z,95765.00
2022-10-12T15:10:40.523Z,95756.56
2022-10-12T15:13:08.323Z,95768.22
2022-10-12T15:15:40.679Z,95759.13
2022-10-12T15:18:09.987Z,95751.31
2022-10-12T15:20:38.380Z,95752.72
2022-10-12T15:23:07.035Z,95759.56
2022-10-12T15:25:42.912Z,95754.06
2022-10-12T15:28:10.963Z,95749.50
2022-10-12T15:30:52.198Z,95749.13
2022-10-12T15:33:28.120Z,95747.97
2022-10-12T15:35:56.165Z,95751.28
2022-10-12T15:38:24.141Z,95747.91
2022-10-12T15:40:52.838Z,95753.47
2022-10-12T15:43:20.938Z,95745.53
2022-10-12T15:45:49.608Z,95729.63
2022-10-12T15:48:17.756Z,95740.38
2022-10-12T15:50:49.065Z,95741.38
2022-10-12T15:53:18.310Z,95739.66
2022-10-12T15:55:46.099Z,95748.59
2022-10-12T15:58:14.175Z,95747.81
2022-10-12T16:00:42.637Z,95743.69
2022-10-12T16:03:24.601Z,95740.91
2022-10-12T16:05:55.491Z,95741.13
2022-10-12T16:08:23.461Z,95733.03
2022-10-12T16:10:51.425Z,95731.25
2022-10-12T16:13:19.334Z,95737.41
2022-10-12T16:15:47.132Z,95741.41
2022-10-12T16:18:15.500Z,95730.31
2022-10-12T16:20:46.647Z,95730.16
2022-10-12T16:23:23.764Z,95727.19
2022-10-12T16:25:51.767Z,95732.16
2022-10-12T16:28:22.194Z,95726.66
2022-10-12T16:30:50.305Z,95726.47
2022-10-12T16:33:19.356Z,95724.88
2022-10-12T16:35:47.723Z,95726.88
2022-10-12T16:38:15.961Z,95726.09
2022-10-12T16:40:45.182Z,95730.47
2022-10-12T16:43:13.132Z,95736.81
2022-10-12T16:45:40.982Z,95735.22
2022-10-12T16:48:08.904Z,95740.38
2022-10-12T16:50:40.638Z,95745.78
2022-10-12T16:53:09.188Z,95743.00
2022-10-12T16:55:39.028Z,95746.19
2022-10-12T16:58:08.247Z,95742.59
2022-10-12T17:00:36.754Z,95749.50
2022-10-12T17:03:04.620Z,95751.50
2022-10-12T17:05:32.424Z,95752.09
2022-10-12T17:08:00.237Z,95744.00
2022-10-12T17:10:28.666Z,95735.25
2022-10-12T17:12:56.658Z,95727.13
2022-10-12T17:15:25.848Z,95739.63
2022-10-12T17:17:54.059Z,95738.63
2022-10-12T17:20:21.891Z,95741.81
2022-10-12T17:22:49.674Z,95744.78
2022-10-12T17:25:17.601Z,95739.44
2022-10-12T17:27:45.380Z,95747.78
2022-10-12T17:30:13.744Z,95756.31
2022-10-12T17:32:42.938Z,95750.97
2022-10-12T17:35:11.213Z,95748.97
2022-10-12T17:37:39.122Z,95755.53
2022-10-12T17:40:11.400Z,95751.97
2022-10-12T17:42:39.480Z,95750.59
2022-10-12T17:45:08.459Z,95755.53
2022-10-12T17:47:36.382Z,95745.63
2022-10-12T17:50:06.475Z,95748.78
2022-10-12T17:52:39.475Z,95745.19
2022-10-12T17:55:19.228Z,95735.66
2022-10-12T17:57:55.962Z,95742.56
2022-10-12T18:00:23.762Z,95752.50
2022-10-12T18:02:51.660Z,95740.56
2022-10-12T18:05:21.039Z,95741.16
2022-10-12T18:07:48.848Z,95736.41
2022-10-12T18:10:16.848Z,95743.69
2022-10-12T18:12:45.060Z,95742.28
2022-10-12T18:15:12.901Z,95744.66
2022-10-12T18:17:40.757Z,95756.34
2022-10-12T18:20:09.681Z,95749.00
2022-10-12T18:22:38.941Z,95752.19
2022-10-12T18:25:07.913Z,95750.59
2022-10-12T18:27:35.735Z,95750.34
2022-10-12T18:30:03.901Z,95751.13
2022-10-12T18:32:31.692Z,95750.50
2022-10-12T18:34:59.526Z,95759.41
2022-10-12T18:37:27.490Z,95751.22
2022-10-12T18:39:56.619Z,95749.63
2022-10-12T18:42:24.479Z,95751.97
2022-10-12T18:44:52.316Z,95750.19
2022-10-12T18:47:24.540Z,95747.94
2022-10-12T18:49:55.566Z,95746.13
2022-10-12T18:52:23.600Z,95742.06
2022-10-12T18:54:51.946Z,95745.31
2022-10-12T18:57:21.320Z,95745.06
2022-10-12T18:59:53.794Z,95746.94
2022-10-12T19:02:21.962Z,95735.84
2022-10-12T19:04:50.035Z,95728.09
2022-10-12T19:07:18.006Z,95736.53
2022-10-12T19:09:48.976Z,95734.69
2022-10-12T19:12:21.590Z,95732.00
2022-10-12T19:14:49.911Z,95728.03
2022-10-12T19:17:17.925Z,95725.59
2022-10-12T19:19:48.695Z,95729.34
2022-10-12T19:22:17.029Z,95726.16
2022-10-12T19:24:45.083Z,95724.75
2022-10-12T19:27:12.882Z,95726.53
2022-10-12T19:29:45.665Z,95735.38
2022-10-12T19:32:14.082Z,95737.94
2022-10-12T19:34:42.120Z,95719.72
2022-10-12T19:37:09.989Z,95720.78
2022-10-12T19:39:37.859Z,95723.34
2022-10-12T19:42:06.042Z,95720.78
2022-10-12T19:44:33.956Z,95719.97
2022-10-12T19:47:03.511Z,95716.38
2022-10-12T19:49:36.881Z,95715.88
2022-10-12T19:52:06.584Z,95726.25
2022-10-12T19:54:36.328Z,95726.97
2022-10-12T19:57:04.269Z,95731.66
2022-10-12T19:59:32.231Z,95731.41
2022-10-12T20:02:00.098Z,95736.47
2022-10-12T20:04:32.021Z,95736.38
2022-10-12T20:07:00.114Z,95746.38
2022-10-12T20:09:28.182Z,95740.78
2022-10-12T20:11:56.141Z,95745.66
2022-10-12T20:14:25.616Z,95742.91
2022-10-12T20:16:55.584Z,95746.56
2022-10-12T20:19:23.386Z,95748.22
2022-10-12T20:21:52.667Z,95744.59
2022-10-12T20:24:20.662Z,95749.38
2022-10-12T20:26:48.442Z,95747.97
2022-10-12T20:29:16.385Z,95749.03
2022-10-12T20:31:44.266Z,95746.63
2022-10-12T20:34:14.040Z,95744.34
2022-10-12T20:36:41.874Z,95732.75
2022-10-12T20:39:11.230Z,95741.88
2022-10-12T20:41:40.573Z,95755.53
2022-10-12T20:44:10.330Z,95758.22
2022-10-12T20:46:38.723Z,95749.72
2022-10-12T20:49:06.712Z,95745.22
2022-10-12T20:51:36.860Z,95749.19
2022-10-12T20:54:06.571Z,95754.56
2022-10-12T20:56:35.897Z,95760.03
2022-10-12T20:59:03.717Z,95759.41
2022-10-12T21:01:31.803Z,95754.28
2022-10-12T21:03:59.626Z,95760.72
2022-10-12T21:06:29.645Z,95753.94
2022-10-12T21:08:58.414Z,95754.78
2022-10-12T21:11:26.384Z,95753.88
2022-10-12T21:13:56.109Z,95755.13
2022-10-12T21:16:24.624Z,95749.50
2022-10-12T21:18:55.424Z,95737.94
2022-10-12T21:21:23.978Z,95734.66
2022-10-12T21:23:54.507Z,95724.34
2022-10-12T21:26:24.435Z,95729.91
2022-10-12T21:28:52.495Z,95726.28
2022-10-12T21:31:22.793Z,95737.84
2022-10-12T21:33:51.548Z,95738.63
2022-10-12T21:36:21.569Z,95745.84
2022-10-12T21:38:50.188Z,95736.75
2022-10-12T21:41:19.387Z,95743.47
2022-10-12T21:43:48.370Z,95738.44
2022-10-12T21:46:23.209Z,95741.78
2022-10-12T21:48:51.636Z,95742.03
2022-10-12T21:51:21.169Z,95731.44
2022-10-12T21:53:49.323Z,95727.97
2022-10-12T21:56:19.674Z,95732.28
2022-10-12T21:58:47.966Z,95728.31
2022-10-12T22:01:17.392Z,95733.75
2022-10-12T22:03:48.146Z,95734.56
2022-10-12T22:06:17.901Z,95727.06
2022-10-12T22:08:46.180Z,95733.84
2022-10-12T22:11:16.360Z,95737.38
2022-10-12T22:13:44.167Z,95739.47
2022-10-12T22:16:14.490Z,95739.63
2022-10-12T22:18:42.833Z,95736.91
2022-10-12T22:21:15.103Z,95719.72
2022-10-12T22:23:43.941Z,95707.81
2022-10-12T22:26:14.895Z,95713.25
2022-10-12T22:28:54.369Z,95728.53
2022-10-12T22:31:24.448Z,95735.50
2022-10-12T22:33:52.352Z,95741.59
2022-10-12T22:36:21.534Z,95736.28
2022-10-12T22:38:49.316Z,95746.13
2022-10-12T22:41:18.827Z,95745.81
2022-10-12T22:43:50.413Z,95752.22
2022-10-12T22:46:19.020Z,95746.25
2022-10-12T22:48:47.083Z,95741.00
2022-10-12T22:51:18.576Z,95748.66
2022-10-12T22:53:47.863Z,95757.50
2022-10-12T22:56:17.407Z,95750.09
2022-10-12T22:58:46.656Z,95749.47
2022-10-12T23:01:16.364Z,95753.22
2022-10-12T23:03:45.879Z,95751.66
2022-10-12T23:06:16.246Z,95741.75
2022-10-12T23:08:44.323Z,95748.72
2022-10-12T23:11:16.175Z,95744.59
2022-10-12T23:13:44.764Z,95740.63
2022-10-12T23:16:16.679Z,95736.78
2022-10-12T23:18:44.685Z,95744.22
2022-10-12T23:21:14.799Z,95743.00
2022-10-12T23:23:44.236Z,95759.03
2022-10-12T23:26:15.355Z,95748.59
2022-10-12T23:28:43.276Z,95750.28
2022-10-12T23:31:19.023Z,95745.50
2022-10-12T23:33:47.339Z,95748.56
2022-10-12T23:36:17.236Z,95745.38
2022-10-12T23:38:46.022Z,95742.50
2022-10-12T23:41:15.387Z,95731.97
2022-10-12T23:43:43.468Z,95742.03
2022-10-12T23:46:13.426Z,95730.91
2022-10-12T23:48:42.215Z,95728.13
2022-10-12T23:51:10.812Z,95727.97
2022-10-12T23:53:39.278Z,95732.13
2022-10-12T23:56:07.708Z,95733.72
2022-10-12T23:58:36.995Z,95738.06
